ADDS METAR Data INFO
IDs: Format: Raw Decoded Include TAF

Data at: 0145 UTC 18 Oct 2017

No METAR found for KWVI

KSNS 180053Z 31006KT 7SM CLR 18/09 A3003 RMK AO2 SLP178 T01830094

KMRY 180054Z 00000KT 8SM CLR 16/11 A3005 RMK AO2 SLP186 T01610106

KSJC 180053Z 29008KT 5SM HZ FEW014 SCT075 BKN120 24/05 A3003 RMK AO2 SLP169 T02390050

KSFO 180056Z 30015KT 10SM FEW003 FEW150 BKN180 14/09 A3004 RMK AO2 SLP172 T01440089

KHAF 180135Z AUTO 34009KT 4SM BR OVC003 10/10 A3006 RMK AO2